Rechercher aéroport 
image banner adimage banner ad
image banner ad

SIPB - CAVU - Clube de Aviação Ultraleve Airport

Situé à Raposa, Brazil

ICAO - SIPB, IATA -

Données fournies par Airmate  

Information générale

Coordonnées: S2°26'30" W44°7'29"
Élévation : 108 feet MSL.
Variation magnétique : -20° East
Voir autres Aéroports à Maranhão

Données opérationnelles

Accessible au public
Heure actuelle UTC:
Heure actuelle locale:
Météo à : SBSL - Marechal Cunha Machado ( 20 km )
METAR: SBSL 260200Z 04006KT 9999 FEW017 BKN080 25/24 Q1010
TAF: TAF SBSL 252100Z 2600/2624 10007KT 8000 SCT017 TN24/2610Z TX30/2616Z BECMG 2602/2604 06005KT PROB40 2606/2608 09010KT 5000 RA BKN015 FEW022TCU BECMG 2608/2610 10010KT 6000 DZ BKN012 BECMG 2611/2613 8000 NSW BKN017 BECMG 2614/2616 05015KT BKN017 FEW025TCU PROB40 2617/2621 4000 TSRA BKN015 FEW025CB BECMG 2622/2624 10007KT 9999 SCT015 RMK PHN
Voir NOTAMs / SUP AIP / TFR affectant cet aéroport [VIEW]
Fréquences de communication: [VIEW]

Pistes:

Identifiant RWYQFULongueur (ft)Largeur (ft)SurfaceLDA (ft)
10180459ASPH
28180459ASPH

Coordonnées de l'aéroport

Adresse: Raposa Brazil

Vue satellite de SIPB